Terminal Aerodrome Forecast
Issued by NWS

Home | Current Version | Previous Version | Text Only | Print | Product List | Glossary On
Versions: 1 2 3 4 5 6 7 8 9 10 11 12 13 14 15 16 17 18 19 20 21 22 23 24 25 26
000
FTUS45 KGGW 290500
TAFOLF
TAF
KOLF 290520Z 2906/3006 VRB05KT 6SM -SHRA VCTS BKN050CB BKN080
      TEMPO 2906/2908 VRB30G40KT 3SM TSRA BKN040CB
     FM291200 36008KT P6SM VCSH BKN040
     FM291800 VRB06KT P6SM SCT040
     FM300000 10006KT P6SM SKC=

USA.gov is the U.S. government's official web portal to all federal, state and local government web resources and services.